sensor_id;sensor_type;location;lat;lon;timestamp;P1;durP1;ratioP1;P2;durP2;ratioP2
18879;SDS011;9572;52.378;13.404;2022-12-18T00:02:00;41.57;;;13.43;;
18879;SDS011;9572;52.378;13.404;2022-12-18T00:04:29;37.67;;;12.93;;
18879;SDS011;9572;52.378;13.404;2022-12-18T00:06:56;41.17;;;13.93;;
18879;SDS011;9572;52.378;13.404;2022-12-18T00:09:23;37.97;;;14.20;;
18879;SDS011;9572;52.378;13.404;2022-12-18T00:11:50;31.37;;;12.43;;
18879;SDS011;9572;52.378;13.404;2022-12-18T00:14:19;41.37;;;14.47;;
18879;SDS011;9572;52.378;13.404;2022-12-18T00:16:46;42.67;;;14.50;;
18879;SDS011;9572;52.378;13.404;2022-12-18T00:19:13;39.37;;;13.67;;
18879;SDS011;9572;52.378;13.404;2022-12-18T00:21:41;36.90;;;13.17;;
18879;SDS011;9572;52.378;13.404;2022-12-18T00:24:08;40.13;;;15.30;;
18879;SDS011;9572;52.378;13.404;2022-12-18T00:26:36;37.93;;;13.87;;
18879;SDS011;9572;52.378;13.404;2022-12-18T00:29:05;35.93;;;13.90;;
18879;SDS011;9572;52.378;13.404;2022-12-18T00:31:34;42.43;;;14.80;;
18879;SDS011;9572;52.378;13.404;2022-12-18T00:34:02;42.33;;;14.57;;
18879;SDS011;9572;52.378;13.404;2022-12-18T00:36:30;38.97;;;13.97;;
18879;SDS011;9572;52.378;13.404;2022-12-18T00:38:58;57.23;;;13.90;;
18879;SDS011;9572;52.378;13.404;2022-12-18T00:41:26;43.73;;;14.13;;
18879;SDS011;9572;52.378;13.404;2022-12-18T00:44:11;41.13;;;13.60;;
18879;SDS011;9572;52.378;13.404;2022-12-18T00:46:41;36.60;;;14.20;;
18879;SDS011;9572;52.378;13.404;2022-12-18T00:49:09;40.37;;;14.53;;
18879;SDS011;9572;52.378;13.404;2022-12-18T00:51:36;39.97;;;14.37;;
18879;SDS011;9572;52.378;13.404;2022-12-18T00:54:02;46.03;;;14.90;;
18879;SDS011;9572;52.378;13.404;2022-12-18T00:56:30;40.87;;;13.60;;
18879;SDS011;9572;52.378;13.404;2022-12-18T00:58:57;36.20;;;13.93;;
18879;SDS011;9572;52.378;13.404;2022-12-18T01:01:24;38.37;;;13.37;;
18879;SDS011;9572;52.378;13.404;2022-12-18T01:03:52;45.67;;;14.60;;
18879;SDS011;9572;52.378;13.404;2022-12-18T01:06:19;36.30;;;12.40;;
18879;SDS011;9572;52.378;13.404;2022-12-18T01:08:46;43.93;;;14.37;;
18879;SDS011;9572;52.378;13.404;2022-12-18T01:11:14;41.03;;;13.47;;
18879;SDS011;9572;52.378;13.404;2022-12-18T01:13:43;34.90;;;13.20;;
18879;SDS011;9572;52.378;13.404;2022-12-18T01:16:11;39.43;;;13.57;;
18879;SDS011;9572;52.378;13.404;2022-12-18T01:18:38;40.07;;;13.47;;
18879;SDS011;9572;52.378;13.404;2022-12-18T01:21:07;47.53;;;14.63;;
18879;SDS011;9572;52.378;13.404;2022-12-18T01:23:35;40.23;;;14.17;;
18879;SDS011;9572;52.378;13.404;2022-12-18T01:26:06;47.40;;;16.23;;
18879;SDS011;9572;52.378;13.404;2022-12-18T01:28:33;53.70;;;18.13;;
18879;SDS011;9572;52.378;13.404;2022-12-18T01:31:09;59.57;;;17.87;;
18879;SDS011;9572;52.378;13.404;2022-12-18T01:33:39;54.43;;;17.73;;
18879;SDS011;9572;52.378;13.404;2022-12-18T01:36:08;51.13;;;16.27;;
18879;SDS011;9572;52.378;13.404;2022-12-18T01:38:40;44.33;;;15.00;;
18879;SDS011;9572;52.378;13.404;2022-12-18T01:41:07;38.60;;;13.67;;
18879;SDS011;9572;52.378;13.404;2022-12-18T01:43:41;45.17;;;15.30;;
18879;SDS011;9572;52.378;13.404;2022-12-18T01:46:09;46.37;;;15.13;;
18879;SDS011;9572;52.378;13.404;2022-12-18T01:48:36;45.20;;;15.00;;
18879;SDS011;9572;52.378;13.404;2022-12-18T01:51:04;36.40;;;14.17;;
18879;SDS011;9572;52.378;13.404;2022-12-18T01:53:35;41.30;;;14.40;;
18879;SDS011;9572;52.378;13.404;2022-12-18T01:56:03;49.60;;;17.67;;
18879;SDS011;9572;52.378;13.404;2022-12-18T01:58:32;52.50;;;17.37;;
18879;SDS011;9572;52.378;13.404;2022-12-18T02:01:05;46.57;;;15.97;;
18879;SDS011;9572;52.378;13.404;2022-12-18T02:03:32;49.23;;;16.07;;
18879;SDS011;9572;52.378;13.404;2022-12-18T02:06:01;54.93;;;18.80;;
18879;SDS011;9572;52.378;13.404;2022-12-18T02:08:40;53.93;;;17.47;;
18879;SDS011;9572;52.378;13.404;2022-12-18T02:11:15;50.77;;;17.20;;
18879;SDS011;9572;52.378;13.404;2022-12-18T02:13:50;45.57;;;16.33;;
18879;SDS011;9572;52.378;13.404;2022-12-18T02:16:24;50.73;;;15.90;;
18879;SDS011;9572;52.378;13.404;2022-12-18T02:18:56;44.67;;;15.97;;
18879;SDS011;9572;52.378;13.404;2022-12-18T02:21:30;51.40;;;17.30;;
18879;SDS011;9572;52.378;13.404;2022-12-18T02:24:07;54.50;;;17.43;;
18879;SDS011;9572;52.378;13.404;2022-12-18T02:26:45;46.97;;;16.20;;
18879;SDS011;9572;52.378;13.404;2022-12-18T02:29:16;57.93;;;19.13;;
18879;SDS011;9572;52.378;13.404;2022-12-18T02:31:48;63.73;;;18.70;;
18879;SDS011;9572;52.378;13.404;2022-12-18T02:34:19;57.20;;;19.03;;
18879;SDS011;9572;52.378;13.404;2022-12-18T02:36:51;59.93;;;18.67;;
18879;SDS011;9572;52.378;13.404;2022-12-18T02:39:19;60.87;;;19.77;;
18879;SDS011;9572;52.378;13.404;2022-12-18T02:41:49;54.07;;;18.53;;
18879;SDS011;9572;52.378;13.404;2022-12-18T02:44:17;59.73;;;19.87;;
18879;SDS011;9572;52.378;13.404;2022-12-18T02:46:45;58.97;;;17.93;;
18879;SDS011;9572;52.378;13.404;2022-12-18T02:49:21;48.93;;;16.60;;
18879;SDS011;9572;52.378;13.404;2022-12-18T02:51:55;54.97;;;16.93;;
18879;SDS011;9572;52.378;13.404;2022-12-18T02:54:35;46.37;;;16.30;;
18879;SDS011;9572;52.378;13.404;2022-12-18T02:57:15;56.80;;;18.03;;
18879;SDS011;9572;52.378;13.404;2022-12-18T02:59:49;55.93;;;17.60;;
18879;SDS011;9572;52.378;13.404;2022-12-18T03:02:23;53.47;;;16.83;;
18879;SDS011;9572;52.378;13.404;2022-12-18T03:04:57;51.27;;;16.77;;
18879;SDS011;9572;52.378;13.404;2022-12-18T03:07:33;52.80;;;16.23;;
18879;SDS011;9572;52.378;13.404;2022-12-18T03:10:04;55.20;;;16.40;;
18879;SDS011;9572;52.378;13.404;2022-12-18T03:12:36;55.27;;;16.83;;
18879;SDS011;9572;52.378;13.404;2022-12-18T03:15:08;54.30;;;17.87;;
18879;SDS011;9572;52.378;13.404;2022-12-18T03:17:40;61.30;;;17.67;;
18879;SDS011;9572;52.378;13.404;2022-12-18T03:20:12;51.83;;;17.27;;
18879;SDS011;9572;52.378;13.404;2022-12-18T03:22:46;57.53;;;18.37;;
18879;SDS011;9572;52.378;13.404;2022-12-18T03:25:17;60.77;;;20.50;;
18879;SDS011;9572;52.378;13.404;2022-12-18T03:27:48;75.13;;;20.93;;
18879;SDS011;9572;52.378;13.404;2022-12-18T03:30:20;60.93;;;19.07;;
18879;SDS011;9572;52.378;13.404;2022-12-18T03:32:47;61.43;;;20.57;;
18879;SDS011;9572;52.378;13.404;2022-12-18T03:35:19;77.90;;;22.30;;
18879;SDS011;9572;52.378;13.404;2022-12-18T03:37:49;69.23;;;21.67;;
18879;SDS011;9572;52.378;13.404;2022-12-18T03:40:16;79.93;;;21.57;;
18879;SDS011;9572;52.378;13.404;2022-12-18T03:42:45;74.07;;;21.47;;
18879;SDS011;9572;52.378;13.404;2022-12-18T03:45:19;73.27;;;22.13;;
18879;SDS011;9572;52.378;13.404;2022-12-18T03:47:53;74.10;;;21.27;;
18879;SDS011;9572;52.378;13.404;2022-12-18T03:50:27;72.57;;;21.70;;
18879;SDS011;9572;52.378;13.404;2022-12-18T03:53:05;67.67;;;21.10;;
18879;SDS011;9572;52.378;13.404;2022-12-18T03:55:40;73.47;;;20.17;;
18879;SDS011;9572;52.378;13.404;2022-12-18T03:58:11;70.20;;;20.20;;
18879;SDS011;9572;52.378;13.404;2022-12-18T04:00:42;69.80;;;19.03;;
18879;SDS011;9572;52.378;13.404;2022-12-18T04:03:09;64.63;;;20.00;;
18879;SDS011;9572;52.378;13.404;2022-12-18T04:05:38;66.90;;;20.40;;
18879;SDS011;9572;52.378;13.404;2022-12-18T04:08:06;72.83;;;20.00;;
18879;SDS011;9572;52.378;13.404;2022-12-18T04:10:34;61.30;;;19.00;;
18879;SDS011;9572;52.378;13.404;2022-12-18T04:13:04;57.67;;;18.60;;
18879;SDS011;9572;52.378;13.404;2022-12-18T04:15:32;58.27;;;18.27;;
18879;SDS011;9572;52.378;13.404;2022-12-18T04:18:01;58.40;;;17.43;;
18879;SDS011;9572;52.378;13.404;2022-12-18T04:20:29;49.27;;;15.73;;
18879;SDS011;9572;52.378;13.404;2022-12-18T04:22:56;53.23;;;16.40;;
18879;SDS011;9572;52.378;13.404;2022-12-18T04:25:23;45.03;;;15.50;;
18879;SDS011;9572;52.378;13.404;2022-12-18T04:27:50;59.63;;;17.70;;
18879;SDS011;9572;52.378;13.404;2022-12-18T04:30:17;58.13;;;17.07;;
18879;SDS011;9572;52.378;13.404;2022-12-18T04:32:45;49.93;;;16.40;;
18879;SDS011;9572;52.378;13.404;2022-12-18T04:35:13;56.90;;;17.67;;
18879;SDS011;9572;52.378;13.404;2022-12-18T04:37:40;52.03;;;17.27;;
18879;SDS011;9572;52.378;13.404;2022-12-18T04:40:07;50.77;;;16.53;;
18879;SDS011;9572;52.378;13.404;2022-12-18T04:42:35;54.63;;;17.30;;
18879;SDS011;9572;52.378;13.404;2022-12-18T04:45:02;59.17;;;17.20;;
18879;SDS011;9572;52.378;13.404;2022-12-18T04:47:30;45.43;;;16.53;;
18879;SDS011;9572;52.378;13.404;2022-12-18T04:49:58;58.10;;;18.13;;
18879;SDS011;9572;52.378;13.404;2022-12-18T04:52:25;53.00;;;18.00;;
18879;SDS011;9572;52.378;13.404;2022-12-18T04:54:52;55.67;;;18.20;;
18879;SDS011;9572;52.378;13.404;2022-12-18T04:57:19;58.97;;;18.53;;
18879;SDS011;9572;52.378;13.404;2022-12-18T04:59:46;62.77;;;19.60;;
18879;SDS011;9572;52.378;13.404;2022-12-18T05:02:13;60.77;;;17.87;;
18879;SDS011;9572;52.378;13.404;2022-12-18T05:04:40;71.30;;;19.97;;
18879;SDS011;9572;52.378;13.404;2022-12-18T05:07:09;60.93;;;19.73;;
18879;SDS011;9572;52.378;13.404;2022-12-18T05:09:35;61.97;;;19.53;;
18879;SDS011;9572;52.378;13.404;2022-12-18T05:12:03;69.37;;;21.17;;
18879;SDS011;9572;52.378;13.404;2022-12-18T05:14:30;68.73;;;20.90;;
18879;SDS011;9572;52.378;13.404;2022-12-18T05:16:57;71.13;;;20.97;;
18879;SDS011;9572;52.378;13.404;2022-12-18T05:19:24;66.70;;;20.47;;
18879;SDS011;9572;52.378;13.404;2022-12-18T05:21:51;65.60;;;20.30;;
18879;SDS011;9572;52.378;13.404;2022-12-18T05:24:19;67.30;;;21.63;;
18879;SDS011;9572;52.378;13.404;2022-12-18T05:26:46;60.50;;;18.97;;
18879;SDS011;9572;52.378;13.404;2022-12-18T05:29:13;64.60;;;21.20;;
18879;SDS011;9572;52.378;13.404;2022-12-18T05:31:41;63.50;;;20.93;;
18879;SDS011;9572;52.378;13.404;2022-12-18T05:34:08;61.53;;;20.90;;
18879;SDS011;9572;52.378;13.404;2022-12-18T05:36:35;64.50;;;20.93;;
18879;SDS011;9572;52.378;13.404;2022-12-18T05:39:03;73.60;;;22.70;;
18879;SDS011;9572;52.378;13.404;2022-12-18T05:41:32;64.83;;;20.27;;
18879;SDS011;9572;52.378;13.404;2022-12-18T05:43:59;70.27;;;21.80;;
18879;SDS011;9572;52.378;13.404;2022-12-18T05:46:26;66.57;;;20.20;;
18879;SDS011;9572;52.378;13.404;2022-12-18T05:48:54;75.93;;;22.57;;
18879;SDS011;9572;52.378;13.404;2022-12-18T05:51:21;72.87;;;21.23;;
18879;SDS011;9572;52.378;13.404;2022-12-18T05:53:48;64.53;;;20.70;;
18879;SDS011;9572;52.378;13.404;2022-12-18T05:56:16;70.40;;;20.93;;
18879;SDS011;9572;52.378;13.404;2022-12-18T05:58:47;69.17;;;21.23;;
18879;SDS011;9572;52.378;13.404;2022-12-18T06:01:18;70.30;;;21.47;;
18879;SDS011;9572;52.378;13.404;2022-12-18T06:03:46;66.50;;;20.90;;
18879;SDS011;9572;52.378;13.404;2022-12-18T06:06:14;68.27;;;20.60;;
18879;SDS011;9572;52.378;13.404;2022-12-18T06:08:42;66.60;;;21.10;;
18879;SDS011;9572;52.378;13.404;2022-12-18T06:11:09;69.13;;;21.43;;
18879;SDS011;9572;52.378;13.404;2022-12-18T06:13:36;70.87;;;21.30;;
18879;SDS011;9572;52.378;13.404;2022-12-18T06:16:05;60.47;;;19.20;;
18879;SDS011;9572;52.378;13.404;2022-12-18T06:18:33;63.53;;;20.63;;
18879;SDS011;9572;52.378;13.404;2022-12-18T06:21:02;64.17;;;19.87;;
18879;SDS011;9572;52.378;13.404;2022-12-18T06:23:29;59.47;;;19.93;;
18879;SDS011;9572;52.378;13.404;2022-12-18T06:25:56;61.97;;;19.67;;
18879;SDS011;9572;52.378;13.404;2022-12-18T06:28:23;68.20;;;20.33;;
18879;SDS011;9572;52.378;13.404;2022-12-18T06:30:50;55.57;;;18.13;;
18879;SDS011;9572;52.378;13.404;2022-12-18T06:33:20;59.43;;;19.20;;
18879;SDS011;9572;52.378;13.404;2022-12-18T06:35:47;60.07;;;20.67;;
18879;SDS011;9572;52.378;13.404;2022-12-18T06:38:14;62.40;;;18.73;;
18879;SDS011;9572;52.378;13.404;2022-12-18T06:40:41;59.30;;;18.97;;
18879;SDS011;9572;52.378;13.404;2022-12-18T06:43:07;58.33;;;18.47;;
18879;SDS011;9572;52.378;13.404;2022-12-18T06:45:35;51.90;;;18.33;;
18879;SDS011;9572;52.378;13.404;2022-12-18T06:48:02;55.97;;;17.93;;
18879;SDS011;9572;52.378;13.404;2022-12-18T06:50:30;62.83;;;18.73;;
18879;SDS011;9572;52.378;13.404;2022-12-18T06:52:57;48.17;;;16.47;;
18879;SDS011;9572;52.378;13.404;2022-12-18T06:55:24;47.27;;;16.03;;
18879;SDS011;9572;52.378;13.404;2022-12-18T06:57:51;40.77;;;14.73;;
18879;SDS011;9572;52.378;13.404;2022-12-18T07:00:18;47.63;;;15.63;;
18879;SDS011;9572;52.378;13.404;2022-12-18T07:02:45;41.80;;;15.07;;
18879;SDS011;9572;52.378;13.404;2022-12-18T07:05:12;40.63;;;14.07;;
18879;SDS011;9572;52.378;13.404;2022-12-18T07:07:41;35.17;;;14.33;;
18879;SDS011;9572;52.378;13.404;2022-12-18T07:10:08;42.63;;;14.53;;
18879;SDS011;9572;52.378;13.404;2022-12-18T07:12:35;43.17;;;14.77;;
18879;SDS011;9572;52.378;13.404;2022-12-18T07:15:03;40.97;;;13.27;;
18879;SDS011;9572;52.378;13.404;2022-12-18T07:17:30;42.97;;;14.47;;
18879;SDS011;9572;52.378;13.404;2022-12-18T07:19:57;37.97;;;14.33;;
18879;SDS011;9572;52.378;13.404;2022-12-18T07:22:24;39.33;;;14.53;;
18879;SDS011;9572;52.378;13.404;2022-12-18T07:24:53;44.40;;;14.83;;
18879;SDS011;9572;52.378;13.404;2022-12-18T07:27:20;41.87;;;14.73;;
18879;SDS011;9572;52.378;13.404;2022-12-18T07:29:47;45.87;;;15.27;;
18879;SDS011;9572;52.378;13.404;2022-12-18T07:32:14;46.50;;;15.43;;
18879;SDS011;9572;52.378;13.404;2022-12-18T07:34:41;40.70;;;14.97;;
18879;SDS011;9572;52.378;13.404;2022-12-18T07:37:08;44.33;;;15.77;;
18879;SDS011;9572;52.378;13.404;2022-12-18T07:39:35;43.83;;;15.67;;
18879;SDS011;9572;52.378;13.404;2022-12-18T07:42:04;43.33;;;15.30;;
18879;SDS011;9572;52.378;13.404;2022-12-18T07:44:48;45.33;;;16.17;;
18879;SDS011;9572;52.378;13.404;2022-12-18T07:47:16;45.73;;;15.90;;
18879;SDS011;9572;52.378;13.404;2022-12-18T07:49:43;44.20;;;15.27;;
18879;SDS011;9572;52.378;13.404;2022-12-18T07:52:09;51.70;;;16.97;;
18879;SDS011;9572;52.378;13.404;2022-12-18T07:54:37;47.30;;;16.13;;
18879;SDS011;9572;52.378;13.404;2022-12-18T07:57:06;47.10;;;15.97;;
18879;SDS011;9572;52.378;13.404;2022-12-18T07:59:33;54.73;;;16.30;;
18879;SDS011;9572;52.378;13.404;2022-12-18T08:02:01;50.07;;;15.53;;
18879;SDS011;9572;52.378;13.404;2022-12-18T08:04:28;50.63;;;16.50;;
18879;SDS011;9572;52.378;13.404;2022-12-18T08:06:54;47.27;;;15.80;;
18879;SDS011;9572;52.378;13.404;2022-12-18T08:09:21;56.63;;;15.73;;
18879;SDS011;9572;52.378;13.404;2022-12-18T08:11:48;56.83;;;16.77;;
18879;SDS011;9572;52.378;13.404;2022-12-18T08:14:17;55.90;;;16.83;;
18879;SDS011;9572;52.378;13.404;2022-12-18T08:16:44;51.57;;;16.53;;
18879;SDS011;9572;52.378;13.404;2022-12-18T08:19:11;51.23;;;16.07;;
18879;SDS011;9572;52.378;13.404;2022-12-18T08:21:38;63.13;;;18.07;;
18879;SDS011;9572;52.378;13.404;2022-12-18T08:24:08;56.83;;;17.00;;
18879;SDS011;9572;52.378;13.404;2022-12-18T08:26:36;55.33;;;17.67;;
18879;SDS011;9572;52.378;13.404;2022-12-18T08:29:03;55.70;;;17.33;;
18879;SDS011;9572;52.378;13.404;2022-12-18T08:31:31;53.63;;;16.90;;
18879;SDS011;9572;52.378;13.404;2022-12-18T08:33:59;60.10;;;18.50;;
18879;SDS011;9572;52.378;13.404;2022-12-18T08:36:26;56.53;;;16.03;;
18879;SDS011;9572;52.378;13.404;2022-12-18T08:38:53;53.23;;;15.47;;
18879;SDS011;9572;52.378;13.404;2022-12-18T08:41:20;50.20;;;16.13;;
18879;SDS011;9572;52.378;13.404;2022-12-18T08:43:47;52.67;;;16.13;;
18879;SDS011;9572;52.378;13.404;2022-12-18T08:46:34;56.10;;;17.80;;
18879;SDS011;9572;52.378;13.404;2022-12-18T08:49:01;53.90;;;16.73;;
18879;SDS011;9572;52.378;13.404;2022-12-18T08:51:29;51.27;;;16.27;;
18879;SDS011;9572;52.378;13.404;2022-12-18T08:53:56;56.20;;;17.63;;
18879;SDS011;9572;52.378;13.404;2022-12-18T08:56:23;48.37;;;15.63;;
18879;SDS011;9572;52.378;13.404;2022-12-18T08:58:51;48.07;;;15.23;;
18879;SDS011;9572;52.378;13.404;2022-12-18T09:01:18;48.23;;;16.23;;
18879;SDS011;9572;52.378;13.404;2022-12-18T09:03:48;49.73;;;16.03;;
18879;SDS011;9572;52.378;13.404;2022-12-18T09:06:16;45.43;;;15.83;;
18879;SDS011;9572;52.378;13.404;2022-12-18T09:08:44;44.97;;;15.83;;
18879;SDS011;9572;52.378;13.404;2022-12-18T09:11:12;43.60;;;15.07;;
18879;SDS011;9572;52.378;13.404;2022-12-18T09:13:40;47.60;;;15.97;;
18879;SDS011;9572;52.378;13.404;2022-12-18T09:16:07;43.10;;;14.77;;
18879;SDS011;9572;52.378;13.404;2022-12-18T09:18:34;47.47;;;16.17;;
18879;SDS011;9572;52.378;13.404;2022-12-18T09:21:08;42.37;;;14.20;;
18879;SDS011;9572;52.378;13.404;2022-12-18T09:23:36;44.20;;;14.37;;
18879;SDS011;9572;52.378;13.404;2022-12-18T09:26:03;50.57;;;14.87;;
18879;SDS011;9572;52.378;13.404;2022-12-18T09:28:30;40.23;;;13.67;;
18879;SDS011;9572;52.378;13.404;2022-12-18T09:30:57;45.27;;;15.90;;
18879;SDS011;9572;52.378;13.404;2022-12-18T09:33:24;37.17;;;12.97;;
18879;SDS011;9572;52.378;13.404;2022-12-18T09:35:51;44.53;;;15.80;;
18879;SDS011;9572;52.378;13.404;2022-12-18T09:38:19;47.23;;;16.17;;
18879;SDS011;9572;52.378;13.404;2022-12-18T09:40:48;47.30;;;15.20;;
18879;SDS011;9572;52.378;13.404;2022-12-18T09:43:19;33.93;;;12.63;;
18879;SDS011;9572;52.378;13.404;2022-12-18T09:45:49;38.83;;;13.50;;
18879;SDS011;9572;52.378;13.404;2022-12-18T09:48:20;34.47;;;13.10;;
18879;SDS011;9572;52.378;13.404;2022-12-18T09:50:51;47.40;;;15.43;;
18879;SDS011;9572;52.378;13.404;2022-12-18T09:53:24;41.73;;;14.47;;
18879;SDS011;9572;52.378;13.404;2022-12-18T09:55:54;38.50;;;14.43;;
18879;SDS011;9572;52.378;13.404;2022-12-18T09:58:24;42.97;;;14.80;;
18879;SDS011;9572;52.378;13.404;2022-12-18T10:00:55;36.80;;;14.03;;
18879;SDS011;9572;52.378;13.404;2022-12-18T10:03:22;41.10;;;15.17;;
18879;SDS011;9572;52.378;13.404;2022-12-18T10:05:53;37.03;;;13.93;;
18879;SDS011;9572;52.378;13.404;2022-12-18T10:08:30;39.53;;;14.13;;
18879;SDS011;9572;52.378;13.404;2022-12-18T10:11:12;42.17;;;14.10;;
18879;SDS011;9572;52.378;13.404;2022-12-18T10:13:50;47.53;;;15.27;;
18879;SDS011;9572;52.378;13.404;2022-12-18T10:16:22;42.37;;;14.47;;
18879;SDS011;9572;52.378;13.404;2022-12-18T10:21:45;39.10;;;13.40;;
18879;SDS011;9572;52.378;13.404;2022-12-18T10:24:22;39.37;;;13.47;;
18879;SDS011;9572;52.378;13.404;2022-12-18T10:26:55;39.47;;;13.93;;
18879;SDS011;9572;52.378;13.404;2022-12-18T10:29:30;43.17;;;14.27;;
18879;SDS011;9572;52.378;13.404;2022-12-18T10:31:57;42.60;;;14.23;;
18879;SDS011;9572;52.378;13.404;2022-12-18T10:34:24;43.10;;;15.67;;
18879;SDS011;9572;52.378;13.404;2022-12-18T10:36:51;40.77;;;14.30;;
18879;SDS011;9572;52.378;13.404;2022-12-18T10:39:19;44.90;;;15.17;;
18879;SDS011;9572;52.378;13.404;2022-12-18T10:41:50;42.17;;;15.67;;
18879;SDS011;9572;52.378;13.404;2022-12-18T10:44:17;44.37;;;16.47;;
18879;SDS011;9572;52.378;13.404;2022-12-18T10:46:45;44.57;;;17.00;;
18879;SDS011;9572;52.378;13.404;2022-12-18T10:49:18;52.00;;;16.80;;
18879;SDS011;9572;52.378;13.404;2022-12-18T10:51:48;46.27;;;16.37;;
18879;SDS011;9572;52.378;13.404;2022-12-18T10:54:16;51.10;;;17.23;;
18879;SDS011;9572;52.378;13.404;2022-12-18T10:56:46;44.53;;;16.43;;
18879;SDS011;9572;52.378;13.404;2022-12-18T10:59:14;51.00;;;16.23;;
18879;SDS011;9572;52.378;13.404;2022-12-18T11:01:46;48.03;;;16.10;;
18879;SDS011;9572;52.378;13.404;2022-12-18T11:04:18;45.40;;;16.33;;
18879;SDS011;9572;52.378;13.404;2022-12-18T11:06:54;53.43;;;16.70;;
18879;SDS011;9572;52.378;13.404;2022-12-18T11:09:23;55.77;;;17.27;;
18879;SDS011;9572;52.378;13.404;2022-12-18T11:11:53;52.40;;;17.50;;
18879;SDS011;9572;52.378;13.404;2022-12-18T11:14:22;42.10;;;15.63;;
18879;SDS011;9572;52.378;13.404;2022-12-18T11:16:52;40.33;;;17.03;;
18879;SDS011;9572;52.378;13.404;2022-12-18T11:19:28;49.27;;;16.77;;
18879;SDS011;9572;52.378;13.404;2022-12-18T11:21:58;52.27;;;17.27;;
18879;SDS011;9572;52.378;13.404;2022-12-18T11:24:27;46.10;;;15.57;;
18879;SDS011;9572;52.378;13.404;2022-12-18T11:27:00;50.93;;;18.07;;
18879;SDS011;9572;52.378;13.404;2022-12-18T11:29:30;47.43;;;16.50;;
18879;SDS011;9572;52.378;13.404;2022-12-18T11:32:12;52.73;;;17.93;;
18879;SDS011;9572;52.378;13.404;2022-12-18T11:35:10;45.23;;;17.20;;
18879;SDS011;9572;52.378;13.404;2022-12-18T11:37:43;46.50;;;16.40;;
18879;SDS011;9572;52.378;13.404;2022-12-18T11:40:16;41.67;;;15.40;;
18879;SDS011;9572;52.378;13.404;2022-12-18T11:42:48;45.23;;;16.77;;
18879;SDS011;9572;52.378;13.404;2022-12-18T11:45:29;44.63;;;15.70;;
18879;SDS011;9572;52.378;13.404;2022-12-18T11:48:02;46.87;;;15.80;;
18879;SDS011;9572;52.378;13.404;2022-12-18T11:50:34;43.90;;;14.47;;
18879;SDS011;9572;52.378;13.404;2022-12-18T11:53:11;41.00;;;15.30;;
18879;SDS011;9572;52.378;13.404;2022-12-18T11:55:40;41.93;;;15.10;;
18879;SDS011;9572;52.378;13.404;2022-12-18T11:58:17;40.17;;;14.77;;
18879;SDS011;9572;52.378;13.404;2022-12-18T12:00:53;47.63;;;15.90;;
18879;SDS011;9572;52.378;13.404;2022-12-18T12:03:36;42.83;;;14.17;;
18879;SDS011;9572;52.378;13.404;2022-12-18T12:06:22;41.57;;;14.67;;
18879;SDS011;9572;52.378;13.404;2022-12-18T12:08:57;38.67;;;13.13;;
18879;SDS011;9572;52.378;13.404;2022-12-18T12:11:33;41.23;;;14.53;;
18879;SDS011;9572;52.378;13.404;2022-12-18T12:14:12;43.87;;;14.53;;
18879;SDS011;9572;52.378;13.404;2022-12-18T12:16:57;50.80;;;16.37;;
18879;SDS011;9572;52.378;13.404;2022-12-18T12:19:35;43.20;;;16.33;;
18879;SDS011;9572;52.378;13.404;2022-12-18T12:22:11;44.63;;;16.23;;
18879;SDS011;9572;52.378;13.404;2022-12-18T12:24:48;42.47;;;15.57;;
18879;SDS011;9572;52.378;13.404;2022-12-18T12:27:24;37.97;;;15.43;;
18879;SDS011;9572;52.378;13.404;2022-12-18T12:30:02;35.67;;;14.13;;
18879;SDS011;9572;52.378;13.404;2022-12-18T12:32:38;38.43;;;15.23;;
18879;SDS011;9572;52.378;13.404;2022-12-18T12:35:24;39.23;;;15.17;;
18879;SDS011;9572;52.378;13.404;2022-12-18T12:38:02;32.83;;;14.23;;
18879;SDS011;9572;52.378;13.404;2022-12-18T12:40:35;34.60;;;13.50;;
18879;SDS011;9572;52.378;13.404;2022-12-18T12:43:10;30.13;;;13.53;;
18879;SDS011;9572;52.378;13.404;2022-12-18T12:45:50;31.13;;;12.83;;
18879;SDS011;9572;52.378;13.404;2022-12-18T12:48:23;31.93;;;12.63;;
18879;SDS011;9572;52.378;13.404;2022-12-18T12:50:59;30.60;;;13.30;;
18879;SDS011;9572;52.378;13.404;2022-12-18T12:53:29;33.70;;;14.67;;
18879;SDS011;9572;52.378;13.404;2022-12-18T12:56:00;31.20;;;13.10;;
18879;SDS011;9572;52.378;13.404;2022-12-18T12:58:30;30.73;;;13.13;;
18879;SDS011;9572;52.378;13.404;2022-12-18T13:01:08;31.40;;;13.20;;
18879;SDS011;9572;52.378;13.404;2022-12-18T13:03:43;29.00;;;14.63;;
18879;SDS011;9572;52.378;13.404;2022-12-18T13:06:24;32.90;;;14.83;;
18879;SDS011;9572;52.378;13.404;2022-12-18T13:08:59;36.40;;;14.60;;
18879;SDS011;9572;52.378;13.404;2022-12-18T13:11:32;31.30;;;13.30;;
18879;SDS011;9572;52.378;13.404;2022-12-18T13:14:21;34.83;;;13.70;;
18879;SDS011;9572;52.378;13.404;2022-12-18T13:16:51;31.83;;;13.80;;
18879;SDS011;9572;52.378;13.404;2022-12-18T13:19:38;34.20;;;14.07;;
18879;SDS011;9572;52.378;13.404;2022-12-18T13:22:12;32.40;;;13.77;;
18879;SDS011;9572;52.378;13.404;2022-12-18T13:24:47;32.10;;;13.87;;
18879;SDS011;9572;52.378;13.404;2022-12-18T13:33:38;37.37;;;14.80;;
18879;SDS011;9572;52.378;13.404;2022-12-18T13:36:12;40.90;;;16.00;;
18879;SDS011;9572;52.378;13.404;2022-12-18T13:38:42;33.97;;;15.63;;
18879;SDS011;9572;52.378;13.404;2022-12-18T13:41:22;34.93;;;14.93;;
18879;SDS011;9572;52.378;13.404;2022-12-18T13:43:51;38.50;;;15.70;;
18879;SDS011;9572;52.378;13.404;2022-12-18T13:46:20;37.50;;;14.83;;
18879;SDS011;9572;52.378;13.404;2022-12-18T13:48:55;48.60;;;18.00;;
18879;SDS011;9572;52.378;13.404;2022-12-18T13:51:24;50.93;;;19.73;;
18879;SDS011;9572;52.378;13.404;2022-12-18T13:53:53;51.47;;;20.33;;
18879;SDS011;9572;52.378;13.404;2022-12-18T13:56:23;59.43;;;21.53;;
18879;SDS011;9572;52.378;13.404;2022-12-18T14:01:44;49.47;;;19.73;;
18879;SDS011;9572;52.378;13.404;2022-12-18T14:04:17;68.63;;;22.77;;
18879;SDS011;9572;52.378;13.404;2022-12-18T14:06:46;62.37;;;23.53;;
18879;SDS011;9572;52.378;13.404;2022-12-18T14:09:15;57.00;;;23.63;;
18879;SDS011;9572;52.378;13.404;2022-12-18T14:11:46;78.23;;;24.93;;
18879;SDS011;9572;52.378;13.404;2022-12-18T14:14:14;59.67;;;22.57;;
18879;SDS011;9572;52.378;13.404;2022-12-18T14:16:42;67.73;;;25.40;;
18879;SDS011;9572;52.378;13.404;2022-12-18T14:19:10;75.07;;;23.33;;
18879;SDS011;9572;52.378;13.404;2022-12-18T14:21:45;66.73;;;23.30;;
18879;SDS011;9572;52.378;13.404;2022-12-18T14:24:14;62.10;;;23.10;;
18879;SDS011;9572;52.378;13.404;2022-12-18T14:26:42;58.47;;;21.40;;
18879;SDS011;9572;52.378;13.404;2022-12-18T14:29:21;57.43;;;20.20;;
18879;SDS011;9572;52.378;13.404;2022-12-18T14:32:09;55.83;;;21.30;;
18879;SDS011;9572;52.378;13.404;2022-12-18T14:34:40;58.27;;;21.73;;
18879;SDS011;9572;52.378;13.404;2022-12-18T14:37:09;64.60;;;22.37;;
18879;SDS011;9572;52.378;13.404;2022-12-18T14:39:37;58.47;;;22.40;;
18879;SDS011;9572;52.378;13.404;2022-12-18T14:42:09;54.03;;;20.67;;
18879;SDS011;9572;52.378;13.404;2022-12-18T14:44:37;47.33;;;19.83;;
18879;SDS011;9572;52.378;13.404;2022-12-18T14:47:12;42.80;;;18.70;;
18879;SDS011;9572;52.378;13.404;2022-12-18T14:49:42;44.37;;;17.93;;
18879;SDS011;9572;52.378;13.404;2022-12-18T14:52:20;49.87;;;18.70;;